Time;durP1;ratioP1;P1;durP2;ratioP2;P2;SDS_P1;SDS_P2;PMS_P1;PMS_P2;Temp;Humidity;BMP_temperature;BMP_pressure;BME280_temperature;BME280_humidity;BME280_pressure;Samples;Min_cycle;Max_cycle;Signal;HPM_P1;HPM_P2
2022/09/26 00:02:14;;;;;;;5.18;1.38;;;;;;;19.49;49.15;100909.22;5042618;28;20044;-62
2022/09/26 00:04:39;;;;;;;3.60;2.17;;;;;;;19.49;49.11;100908.38;5042377;28;20047;-61
2022/09/26 00:07:04;;;;;;;3.10;1.45;;;;;;;19.47;48.90;100905.88;5042679;28;20033;-61
2022/09/26 00:09:30;;;;;;;3.47;1.47;;;;;;;19.52;49.12;100906.31;5042384;28;20029;-61
2022/09/26 00:11:55;;;;;;;4.05;1.60;;;;;;;19.52;48.96;100914.25;5042269;28;20265;-61
2022/09/26 00:14:26;;;;;;;2.83;1.45;;;;;;;19.47;49.23;100897.09;5041921;28;20511;-62
2022/09/26 00:16:51;;;;;;;2.65;1.30;;;;;;;19.49;48.90;100898.63;5041614;28;20052;-62
2022/09/26 00:19:17;;;;;;;3.17;1.63;;;;;;;19.42;49.01;100884.25;5041929;28;20049;-62
2022/09/26 00:21:43;;;;;;;3.40;1.60;;;;;;;19.42;48.92;100883.44;5042080;28;20048;-61
2022/09/26 00:24:08;;;;;;;4.00;1.73;;;;;;;19.47;48.86;100890.03;5042210;28;20024;-61
2022/09/26 00:26:35;;;;;;;3.45;1.70;;;;;;;19.47;49.04;100884.72;5042077;28;20123;-63
2022/09/26 00:29:06;;;;;;;3.42;1.70;;;;;;;19.45;49.21;100876.06;5041761;28;20029;-61
2022/09/26 00:31:33;;;;;;;4.63;1.60;;;;;;;19.39;48.96;100866.03;5041660;28;20033;-62
2022/09/26 00:33:58;;;;;;;2.92;1.50;;;;;;;19.44;48.91;100874.41;5041635;28;20032;-61
2022/09/26 00:36:25;;;;;;;4.05;1.60;;;;;;;19.43;48.98;100859.53;5041915;28;20477;-61
2022/09/26 00:38:50;;;;;;;3.28;1.63;;;;;;;19.43;48.98;100867.44;5041621;28;20521;-62
2022/09/26 00:41:16;;;;;;;3.42;1.70;;;;;;;19.41;49.25;100858.81;5041537;28;20036;-61
2022/09/26 00:43:44;;;;;;;2.80;1.50;;;;;;;19.37;49.09;100850.31;5041434;28;20029;-61
2022/09/26 00:46:21;;;;;;;4.07;1.70;;;;;;;19.41;49.11;100864.13;5041612;28;20499;-61
2022/09/26 00:49:01;;;;;;;3.15;1.52;;;;;;;19.35;49.18;100843.50;5041608;28;20041;-61
2022/09/26 00:51:27;;;;;;;3.10;1.55;;;;;;;19.33;49.15;100838.34;5041664;28;20040;-61
2022/09/26 00:53:54;;;;;;;3.40;1.60;;;;;;;19.36;49.00;100846.00;5041522;28;20040;-62
2022/09/26 00:56:28;;;;;;;3.83;1.60;;;;;;;19.39;48.98;100842.25;5041056;28;20070;-61
2022/09/26 00:59:08;;;;;;;5.40;1.50;;;;;;;19.37;49.00;100829.16;5041951;28;20480;-60
2022/09/26 01:01:34;;;;;;;2.75;1.27;;;;;;;19.32;49.03;100819.97;5041736;28;20079;-61
2022/09/26 01:04:03;;;;;;;5.68;1.70;;;;;;;19.37;49.16;100821.22;5041265;28;20473;-61
2022/09/26 01:06:29;;;;;;;3.80;1.80;;;;;;;19.33;49.05;100817.19;5041416;28;20036;-60
2022/09/26 01:09:05;;;;;;;3.30;1.60;;;;;;;19.36;48.98;100816.94;5041235;28;20083;-60
2022/09/26 01:11:30;;;;;;;3.53;2.42;;;;;;;19.36;49.20;100808.19;5041370;28;20025;-62
2022/09/26 01:13:56;;;;;;;4.25;1.80;;;;;;;19.29;49.17;100791.19;5041480;28;20388;-61
2022/09/26 01:16:22;;;;;;;3.88;1.70;;;;;;;19.29;49.08;100793.81;5041190;28;20487;-62
2022/09/26 01:18:47;;;;;;;3.05;1.40;;;;;;;19.29;49.01;100784.06;5041056;28;20549;-61
2022/09/26 01:21:34;;;;;;;3.35;1.60;;;;;;;19.30;48.97;100779.66;5041245;28;20029;-62
2022/09/26 01:24:11;;;;;;;4.45;1.80;;;;;;;19.29;49.15;100776.16;5040946;28;20017;-61
2022/09/26 01:26:53;;;;;;;4.38;1.60;;;;;;;19.33;49.23;100784.66;5040999;28;20058;-61
2022/09/26 01:29:56;;;;;;;4.18;1.63;;;;;;;19.32;49.01;100769.78;5040935;28;20032;-61
2022/09/26 01:32:49;;;;;;;3.80;1.60;;;;;;;19.29;49.10;100762.94;5040188;28;20048;-61
2022/09/26 01:35:45;;;;;;;3.70;1.50;;;;;;;19.31;49.12;100758.38;5040914;28;20108;-62
2022/09/26 01:38:47;;;;;;;4.38;1.70;;;;;;;19.25;49.08;100739.56;5040740;28;20043;-62
2022/09/26 01:41:46;;;;;;;3.83;1.60;;;;;;;19.25;49.18;100734.28;5041060;28;20083;-61
2022/09/26 01:44:21;;;;;;;3.17;1.63;;;;;;;19.29;48.95;100741.81;5041286;28;20082;-61
2022/09/26 01:46:54;;;;;;;2.70;1.40;;;;;;;19.25;49.08;100731.63;5040736;28;20029;-61
2022/09/26 01:49:25;;;;;;;3.28;1.60;;;;;;;19.29;48.95;100731.22;5040908;28;20071;-61
2022/09/26 01:52:21;;;;;;;4.00;1.67;;;;;;;19.24;49.07;100714.13;5040921;28;20044;-60
2022/09/26 01:55:00;;;;;;;3.50;1.55;;;;;;;19.28;49.05;100726.94;5040795;28;20504;-61
2022/09/26 01:57:30;;;;;;;3.95;1.70;;;;;;;19.26;48.96;100709.53;5040806;28;20158;-61
2022/09/26 02:00:01;;;;;;;3.28;1.48;;;;;;;19.26;49.12;100705.06;5040873;28;20041;-62
2022/09/26 02:02:31;;;;;;;4.18;1.50;;;;;;;19.25;49.07;100689.34;5043267;28;20033;-62
2022/09/26 02:05:03;;;;;;;3.63;1.55;;;;;;;19.21;48.84;100687.00;5044682;28;20040;-62
2022/09/26 02:07:38;;;;;;;3.03;1.35;;;;;;;19.21;48.97;100683.53;5044468;28;20041;-62
2022/09/26 02:10:12;;;;;;;3.47;1.58;;;;;;;19.21;48.98;100679.06;5044222;28;20082;-62
2022/09/26 02:12:41;;;;;;;3.63;1.60;;;;;;;19.24;48.84;100675.31;5044507;28;20033;-61
2022/09/26 02:15:13;;;;;;;3.55;1.42;;;;;;;19.23;48.84;100665.72;5044946;28;20041;-62
2022/09/26 02:17:42;;;;;;;2.63;1.30;;;;;;;19.24;48.97;100675.31;5044509;28;20041;-61
2022/09/26 02:20:18;;;;;;;3.00;1.27;;;;;;;19.20;48.95;100666.00;5044375;28;20048;-62
2022/09/26 02:22:43;;;;;;;3.35;1.42;;;;;;;19.17;48.57;100650.44;5044072;28;20068;-62
2022/09/26 02:25:10;;;;;;;2.67;1.25;;;;;;;19.23;48.63;100662.25;5044443;28;20072;-62
2022/09/26 02:27:36;;;;;;;3.40;1.52;;;;;;;19.17;48.49;100639.88;5044049;28;20136;-60
2022/09/26 02:30:02;;;;;;;2.88;1.40;;;;;;;19.17;48.59;100640.69;5043707;28;20198;-61
2022/09/26 02:32:30;;;;;;;2.72;1.30;;;;;;;19.22;48.72;100642.94;5044226;28;20021;-61
2022/09/26 02:34:56;;;;;;;5.65;1.67;;;;;;;19.20;48.82;100636.94;5043999;28;20044;-61
2022/09/26 02:37:22;;;;;;;2.75;1.20;;;;;;;19.16;48.84;100624.97;5044005;28;21051;-61
2022/09/26 02:39:49;;;;;;;4.10;1.30;;;;;;;19.15;48.65;100618.88;5044195;28;20040;-61
2022/09/26 02:42:20;;;;;;;2.88;1.23;;;;;;;19.19;48.62;100625.53;5043992;28;20036;-61
2022/09/26 02:45:13;;;;;;;3.53;1.63;;;;;;;19.20;48.74;100629.00;5044348;28;20139;-61
2022/09/26 02:47:53;;;;;;;4.22;1.13;;;;;;;19.20;48.81;100631.66;5043976;28;20496;-61
2022/09/26 02:50:34;;;;;;;3.35;1.40;;;;;;;19.19;48.41;100628.19;5043459;28;20028;-61
2022/09/26 02:53:12;;;;;;;3.10;1.40;;;;;;;19.18;48.59;100620.38;5043541;28;20961;-61
2022/09/26 02:55:46;;;;;;;4.63;1.58;;;;;;;19.13;48.50;100602.31;5043301;28;20044;-61
2022/09/26 02:58:34;;;;;;;3.42;1.40;;;;;;;19.17;48.50;100608.19;5043785;28;20033;-61
2022/09/26 03:01:20;;;;;;;4.00;1.45;;;;;;;19.09;48.59;100589.50;5042983;28;20128;-61
2022/09/26 03:03:55;;;;;;;4.00;1.50;;;;;;;19.11;48.63;100593.69;5043379;28;20480;-61
2022/09/26 03:06:26;;;;;;;2.22;1.20;;;;;;;19.12;48.66;100586.59;5043546;28;20094;-61
2022/09/26 03:08:55;;;;;;;4.18;1.38;;;;;;;19.14;48.58;100585.50;5043524;28;20032;-61
2022/09/26 03:11:23;;;;;;;3.08;1.40;;;;;;;19.15;48.49;100588.97;5043525;28;20033;-62
2022/09/26 03:13:52;;;;;;;2.70;1.40;;;;;;;19.10;48.60;100570.06;5042883;28;20044;-61
2022/09/26 03:16:19;;;;;;;4.18;1.40;;;;;;;19.13;48.52;100577.72;5042921;28;20396;-60
2022/09/26 03:18:57;;;;;;;3.83;1.40;;;;;;;19.15;48.59;100575.75;5042620;28;20048;-61
2022/09/26 03:21:23;;;;;;;2.92;1.40;;;;;;;19.14;48.39;100567.00;5043354;28;20028;-62
2022/09/26 03:23:49;;;;;;;2.97;1.30;;;;;;;19.08;48.60;100558.81;5043369;28;20037;-61
2022/09/26 03:26:18;;;;;;;3.78;1.42;;;;;;;18.96;48.46;100535.16;5043023;28;20033;-60
2022/09/26 03:28:43;;;;;;;3.78;1.42;;;;;;;19.12;48.45;100557.53;5043158;28;20043;-62
2022/09/26 03:31:10;;;;;;;3.42;1.70;;;;;;;19.06;48.33;100548.38;5042749;28;20025;-61
2022/09/26 03:33:35;;;;;;;3.85;1.60;;;;;;;19.11;48.46;100545.31;5042901;28;20040;-63
2022/09/26 03:36:05;;;;;;;2.83;1.33;;;;;;;19.10;48.40;100544.47;5043255;28;20037;-61
2022/09/26 03:38:30;;;;;;;4.18;1.17;;;;;;;19.10;48.31;100547.13;5042843;28;20045;-61
2022/09/26 03:40:57;;;;;;;3.28;1.33;;;;;;;19.05;48.31;100533.50;5042608;28;20213;-61
2022/09/26 03:43:23;;;;;;;3.00;1.33;;;;;;;19.09;48.22;100536.69;5042920;28;20024;-61
2022/09/26 03:45:49;;;;;;;2.33;1.17;;;;;;;19.09;48.32;100528.75;5042660;28;20033;-62
2022/09/26 03:48:15;;;;;;;2.97;1.42;;;;;;;19.08;48.12;100524.47;5042883;28;20943;-62
2022/09/26 03:50:41;;;;;;;2.65;1.23;;;;;;;19.08;48.14;100527.94;5042627;28;20040;-61
2022/09/26 03:53:06;;;;;;;2.90;1.23;;;;;;;19.01;48.30;100525.03;5042631;28;20033;-61
2022/09/26 03:55:31;;;;;;;3.05;1.30;;;;;;;19.08;48.12;100520.00;5042766;28;20482;-61
2022/09/26 03:57:59;;;;;;;2.97;1.20;;;;;;;19.03;48.22;100503.75;5042345;28;20033;-61
2022/09/26 04:00:25;;;;;;;3.13;1.33;;;;;;;18.99;48.17;100490.00;5042188;28;20117;-63
2022/09/26 04:02:50;;;;;;;2.73;1.10;;;;;;;19.02;48.26;100488.88;5042226;28;20115;-61
2022/09/26 04:05:15;;;;;;;3.03;1.20;;;;;;;19.07;48.56;100496.38;5042508;28;20277;-61
2022/09/26 04:07:43;;;;;;;3.47;1.40;;;;;;;19.07;48.27;100489.28;5042314;28;20044;-62
2022/09/26 04:10:08;;;;;;;4.07;1.30;;;;;;;19.07;48.35;100488.44;5041926;28;20401;-62
2022/09/26 04:12:34;;;;;;;3.40;1.30;;;;;;;19.06;48.61;100484.13;5042249;28;20025;-62
2022/09/26 04:14:59;;;;;;;2.90;1.00;;;;;;;19.06;48.49;100474.44;5041781;28;20025;-62
2022/09/26 04:17:24;;;;;;;3.40;1.10;;;;;;;18.99;48.44;100460.09;5042128;28;20359;-62
2022/09/26 04:19:49;;;;;;;2.47;1.10;;;;;;;19.05;48.41;100456.91;5041796;28;20368;-62
2022/09/26 04:22:15;;;;;;;5.40;1.30;;;;;;;19.04;48.46;100460.50;5042479;28;20261;-61
2022/09/26 04:24:40;;;;;;;3.43;1.30;;;;;;;18.99;48.26;100442.47;5040881;28;20254;-62
2022/09/26 04:27:06;;;;;;;3.30;1.13;;;;;;;19.00;48.33;100438.00;5042069;28;20269;-61
2022/09/26 04:29:31;;;;;;;4.68;1.10;;;;;;;19.02;48.62;100436.06;5041615;28;20029;-61
2022/09/26 04:31:56;;;;;;;2.63;1.10;;;;;;;19.01;48.59;100432.59;5041289;28;20571;-60
2022/09/26 04:34:23;;;;;;;2.80;1.20;;;;;;;18.98;48.56;100424.94;5041863;28;20029;-61
2022/09/26 04:36:50;;;;;;;3.10;1.20;;;;;;;18.97;48.50;100428.53;5041815;28;20261;-61
2022/09/26 04:39:15;;;;;;;3.08;1.20;;;;;;;19.02;48.51;100426.31;5041859;28;20041;-62
2022/09/26 04:41:40;;;;;;;2.92;1.10;;;;;;;18.99;48.64;100417.84;5041413;28;20532;-61
2022/09/26 04:44:06;;;;;;;3.70;1.40;;;;;;;18.96;48.54;100400.50;5041676;28;20029;-62
2022/09/26 04:46:31;;;;;;;3.03;1.15;;;;;;;18.96;48.57;100386.44;5041227;28;20534;-62
2022/09/26 04:48:58;;;;;;;2.92;1.13;;;;;;;18.97;48.41;100383.66;5041843;28;20033;-62
2022/09/26 04:51:25;;;;;;;2.88;1.20;;;;;;;18.99;48.64;100372.94;5041433;28;20060;-62
2022/09/26 04:53:51;;;;;;;3.10;1.25;;;;;;;18.93;48.21;100368.22;5041239;28;20025;-61
2022/09/26 04:56:19;;;;;;;4.10;1.10;;;;;;;18.96;48.35;100367.94;5041190;28;20051;-62
2022/09/26 04:58:45;;;;;;;2.95;1.00;;;;;;;18.98;48.45;100374.78;5041305;28;20021;-61
2022/09/26 05:01:17;;;;;;;2.58;1.15;;;;;;;18.95;48.26;100361.84;5041706;28;20039;-66
2022/09/26 05:03:43;;;;;;;4.00;1.23;;;;;;;18.99;48.38;100360.59;5041369;28;20543;-60
2022/09/26 05:06:09;;;;;;;3.92;1.55;;;;;;;18.93;48.45;100347.09;5040317;28;20091;-61
2022/09/26 05:08:35;;;;;;;2.83;1.10;;;;;;;18.95;48.35;100350.47;5040797;28;20518;-61
2022/09/26 05:11:01;;;;;;;4.25;1.40;;;;;;;18.94;48.43;100344.31;5040860;28;20472;-61
2022/09/26 05:13:27;;;;;;;4.78;1.50;;;;;;;18.99;48.43;100346.53;5041040;28;20121;-60
2022/09/26 05:15:54;;;;;;;2.20;1.10;;;;;;;18.97;48.27;100330.84;5041065;28;21204;-62
2022/09/26 05:18:22;;;;;;;4.03;1.23;;;;;;;18.93;48.38;100305.72;5041305;28;20033;-62
2022/09/26 05:20:47;;;;;;;3.20;1.10;;;;;;;18.96;48.47;100313.34;5041159;28;20056;-62
2022/09/26 05:28:42;;;;;;;3.83;1.30;;;;;;;18.96;48.54;100317.78;5041233;28;20097;-62
2022/09/26 05:31:08;;;;;;;3.10;1.25;;;;;;;18.96;48.66;100302.78;5040903;28;20033;-61
2022/09/26 05:33:36;;;;;;;5.57;1.20;;;;;;;18.95;48.34;100306.41;5040923;28;20083;-62
2022/09/26 05:36:02;;;;;;;2.85;1.13;;;;;;;18.92;48.43;100298.75;5042705;28;20044;-61
2022/09/26 05:38:27;;;;;;;4.00;1.45;;;;;;;18.95;48.83;100303.75;5045032;28;20036;-61
2022/09/26 05:40:56;;;;;;;4.13;1.48;;;;;;;18.91;48.57;100302.38;5044681;28;20056;-62
2022/09/26 05:43:26;;;;;;;3.97;1.40;;;;;;;18.87;48.52;100285.16;5045028;28;20052;-62
2022/09/26 05:45:59;;;;;;;3.42;1.40;;;;;;;18.91;48.33;100296.25;5045019;28;20083;-62
2022/09/26 05:48:26;;;;;;;3.65;1.40;;;;;;;18.93;48.61;100299.56;5045064;28;20029;-62
2022/09/26 05:50:52;;;;;;;3.25;1.40;;;;;;;18.90;48.37;100298.06;5044542;28;20132;-61
2022/09/26 05:53:18;;;;;;;4.03;1.40;;;;;;;18.93;48.41;100297.78;5044852;28;20112;-62
2022/09/26 05:55:47;;;;;;;4.30;1.27;;;;;;;18.89;48.38;100285.84;5044535;28;20120;-61
2022/09/26 05:58:14;;;;;;;4.07;1.52;;;;;;;18.93;48.49;100300.44;5044385;28;20465;-62
2022/09/26 06:00:39;;;;;;;3.15;1.15;;;;;;;18.93;48.58;100289.00;5044928;28;20021;-61
2022/09/26 06:03:05;;;;;;;3.25;1.25;;;;;;;18.85;48.71;100277.38;5044684;28;20032;-62
2022/09/26 06:05:34;;;;;;;3.65;1.58;;;;;;;18.91;48.52;100277.78;5044713;28;20033;-61
2022/09/26 06:08:00;;;;;;;2.53;1.30;;;;;;;18.90;48.70;100273.47;5044874;28;20083;-61
2022/09/26 06:10:26;;;;;;;3.58;1.40;;;;;;;18.92;48.66;100266.25;5044343;28;20028;-62
2022/09/26 06:12:51;;;;;;;4.25;1.65;;;;;;;18.95;48.49;100245.66;5044693;28;20032;-64
2022/09/26 06:15:17;;;;;;;4.63;1.30;;;;;;;18.95;48.60;100250.94;5044211;28;20037;-61
2022/09/26 06:17:42;;;;;;;3.53;1.35;;;;;;;19.01;48.59;100252.19;5044339;28;20526;-60
2022/09/26 06:20:08;;;;;;;3.55;1.27;;;;;;;18.96;49.05;100236.78;5044379;28;20053;-60
2022/09/26 06:22:41;;;;;;;2.22;1.08;;;;;;;19.01;49.08;100225.78;5044362;28;20056;-61
2022/09/26 06:25:07;;;;;;;6.75;1.50;;;;;;;19.06;49.34;100217.41;5044377;28;20035;-61
2022/09/26 06:27:37;;;;;;;7.32;1.40;;;;;;;19.03;49.25;100205.34;5044028;28;20043;-60
2022/09/26 06:30:06;;;;;;;5.63;1.50;;;;;;;19.05;49.31;100190.16;5044382;28;20174;-61
2022/09/26 06:32:32;;;;;;;5.93;1.63;;;;;;;19.08;49.24;100189.06;5044733;28;20361;-60
2022/09/26 06:34:57;;;;;;;3.72;1.27;;;;;;;19.11;49.29;100186.13;5043783;28;20024;-60
2022/09/26 06:37:22;;;;;;;4.05;1.45;;;;;;;19.17;49.40;100186.34;5043967;28;21052;-60
2022/09/26 06:39:48;;;;;;;4.75;1.15;;;;;;;19.14;49.53;100183.19;5044035;28;20033;-61
2022/09/26 06:42:13;;;;;;;3.17;0.90;;;;;;;19.21;49.28;100190.34;5044068;28;20025;-61
2022/09/26 06:44:38;;;;;;;5.03;1.25;;;;;;;19.23;49.51;100178.81;5043701;28;20116;-62
2022/09/26 06:47:04;;;;;;;4.18;1.13;;;;;;;19.17;49.51;100162.59;5043647;28;20028;-62
2022/09/26 06:49:29;;;;;;;4.90;1.20;;;;;;;19.20;49.45;100154.38;5043743;28;20036;-61
2022/09/26 06:51:54;;;;;;;5.22;1.20;;;;;;;19.22;49.51;100154.22;5043903;28;20025;-61
2022/09/26 06:54:20;;;;;;;3.58;1.30;;;;;;;19.29;49.42;100151.81;5043715;28;20025;-60
2022/09/26 06:56:45;;;;;;;3.40;1.27;;;;;;;19.29;49.71;100143.88;5043839;28;20024;-61
2022/09/26 06:59:11;;;;;;;2.80;1.08;;;;;;;19.33;49.60;100139.97;5043644;28;20033;-60
2022/09/26 07:01:37;;;;;;;8.20;1.50;;;;;;;19.34;49.54;100131.91;5043635;28;20116;-61
2022/09/26 07:04:03;;;;;;;3.03;1.23;;;;;;;19.30;49.37;100135.81;5043472;28;20047;-61
2022/09/26 07:06:29;;;;;;;5.15;1.13;;;;;;;19.31;49.81;100128.69;5043414;28;20472;-60
2022/09/26 07:08:54;;;;;;;2.83;1.10;;;;;;;19.38;49.92;100124.50;5043505;28;20028;-61
2022/09/26 07:11:20;;;;;;;3.22;1.20;;;;;;;19.33;49.67;100114.38;5043160;28;20040;-61
2022/09/26 07:13:45;;;;;;;4.32;1.25;;;;;;;19.42;49.52;100111.81;5043466;28;20091;-62
2022/09/26 07:16:11;;;;;;;7.37;1.20;;;;;;;19.44;49.69;100113.31;5043300;28;20198;-71
2022/09/26 07:18:38;;;;;;;3.20;1.08;;;;;;;19.47;49.69;100099.81;5042568;28;20269;-68
2022/09/26 07:21:05;;;;;;;4.47;1.10;;;;;;;19.42;49.70;100093.31;5042764;28;20144;-69
2022/09/26 07:23:30;;;;;;;3.05;1.17;;;;;;;19.46;49.59;100097.31;5043041;28;20044;-69
2022/09/26 07:25:55;;;;;;;3.67;1.20;;;;;;;19.39;49.69;100092.63;5042612;28;20033;-68
2022/09/26 07:28:20;;;;;;;3.77;1.10;;;;;;;19.40;49.67;100093.47;5041837;28;20266;-67
2022/09/26 07:30:46;;;;;;;3.05;1.13;;;;;;;19.37;49.55;100088.47;5042553;28;20715;-68
2022/09/26 07:33:11;;;;;;;4.47;1.25;;;;;;;19.38;49.72;100082.22;5042672;28;20040;-67
2022/09/26 07:35:37;;;;;;;4.85;1.60;;;;;;;19.42;51.02;100088.84;5040973;28;20095;-71
2022/09/26 07:38:04;;;;;;;5.47;1.65;;;;;;;19.55;51.77;100096.38;5041946;28;20033;-67
2022/09/26 07:40:29;;;;;;;4.03;1.48;;;;;;;19.63;51.33;100096.47;5042681;28;20115;-69
2022/09/26 07:43:01;;;;;;;7.50;1.77;;;;;;;19.65;51.42;100086.56;5040780;28;20140;-71
2022/09/26 07:50:57;;;;;;;4.57;1.55;;;;;;;19.87;51.13;100071.25;5040693;28;20044;-69
2022/09/26 07:53:24;;;;;;;5.75;1.75;;;;;;;19.84;50.98;100069.75;5040308;28;20589;-70
2022/09/26 07:56:06;;;;;;;4.28;1.60;;;;;;;19.93;50.81;100073.25;5041971;28;20072;-69
2022/09/26 07:58:32;;;;;;;5.20;1.60;;;;;;;19.92;50.82;100069.78;5039945;28;20068;-68
2022/09/26 08:00:58;;;;;;;7.93;1.50;;;;;;;19.96;50.71;100074.78;5041483;28;20032;-68
2022/09/26 08:03:27;;;;;;;4.78;1.50;;;;;;;19.94;50.48;100059.06;5041534;28;20036;-68
2022/09/26 08:05:59;;;;;;;4.20;1.60;;;;;;;19.98;49.88;100049.84;5040524;28;20062;-69
2022/09/26 08:08:25;;;;;;;6.03;1.50;;;;;;;20.04;50.50;100051.00;5040099;28;20033;-68
2022/09/26 08:10:50;;;;;;;8.07;2.85;;;;;;;20.10;50.40;100053.03;5039914;28;20043;-66
2022/09/26 08:13:15;;;;;;;5.22;1.33;;;;;;;20.06;49.69;100046.38;5041451;28;20098;-68
2022/09/26 08:15:41;;;;;;;6.10;1.30;;;;;;;20.01;49.16;100044.25;5040774;28;20033;-70
2022/09/26 08:18:06;;;;;;;5.18;1.45;;;;;;;20.07;49.96;100050.69;5041749;28;20746;-72
2022/09/26 08:20:32;;;;;;;4.60;1.20;;;;;;;20.02;49.70;100050.34;5041386;28;20075;-67
2022/09/26 08:22:58;;;;;;;5.35;1.50;;;;;;;20.03;49.86;100041.44;5040607;28;20029;-67
2022/09/26 08:25:23;;;;;;;4.63;1.30;;;;;;;20.08;49.95;100044.44;5041075;28;20025;-69
2022/09/26 08:27:49;;;;;;;5.50;1.50;;;;;;;20.06;49.68;100049.03;5041546;28;20503;-68
2022/09/26 08:30:14;;;;;;;3.15;1.20;;;;;;;20.05;48.35;100042.91;5041042;28;20278;-70
2022/09/26 08:32:40;;;;;;;3.90;1.20;;;;;;;20.01;49.53;100046.88;5041595;28;20021;-67
2022/09/26 08:35:06;;;;;;;5.28;1.40;;;;;;;19.93;49.68;100031.78;5041661;28;20024;-69
2022/09/26 08:37:32;;;;;;;4.95;1.35;;;;;;;19.96;49.83;100033.28;5041613;28;20056;-70
2022/09/26 08:39:59;;;;;;;5.65;1.10;;;;;;;19.94;49.70;100027.31;5041066;28;20067;-68
2022/09/26 08:42:53;;;;;;;3.53;1.13;;;;;;;19.99;49.71;100037.44;5041049;28;20024;-67
2022/09/26 08:48:38;;;;;;;5.60;1.33;;;;;;;19.95;49.58;100021.06;5040929;28;20056;-68
2022/09/26 08:51:33;;;;;;;5.88;1.30;;;;;;;20.08;49.62;100033.84;5040791;28;20029;-69
2022/09/26 08:54:16;;;;;;;3.88;1.08;;;;;;;20.09;49.51;100020.47;5041110;28;20029;-69
2022/09/26 08:56:57;;;;;;;3.88;1.20;;;;;;;20.08;49.52;100016.16;5040845;28;20029;-72
2022/09/26 08:59:32;;;;;;;4.15;1.30;;;;;;;20.08;49.32;100010.88;5040948;28;20036;-70
2022/09/26 09:02:03;;;;;;;4.63;1.50;;;;;;;20.09;49.19;100014.34;5040976;28;20135;-70
2022/09/26 09:04:39;;;;;;;2.72;1.00;;;;;;;20.16;49.36;100017.19;5040865;28;20033;-65
2022/09/26 09:07:15;;;;;;;3.40;1.15;;;;;;;20.16;49.34;100018.03;5040996;28;21054;-68
2022/09/26 09:09:41;;;;;;;3.30;1.10;;;;;;;20.05;49.49;100000.59;5040871;28;20020;-69
2022/09/26 09:12:16;;;;;;;6.18;1.00;;;;;;;20.07;49.46;100009.19;5039871;28;20035;-67
2022/09/26 09:14:57;;;;;;;4.65;1.10;;;;;;;20.09;49.68;100006.41;5040643;28;20047;-68
2022/09/26 09:18:08;;;;;;;3.78;1.27;;;;;;;20.08;49.54;100004.75;5040241;28;20039;-67
2022/09/26 09:20:53;;;;;;;3.10;1.08;;;;;;;20.05;49.57;99989.19;5007809;28;20477;-69
2022/09/26 09:23:46;;;;;;;4.88;1.13;;;;;;;20.10;49.81;99989.56;5016975;28;20045;-67
2022/09/26 09:26:21;;;;;;;6.75;1.48;;;;;;;20.10;49.81;99985.06;5036061;28;20049;-67
2022/09/26 09:29:01;;;;;;;4.65;1.13;;;;;;;20.15;49.68;99979.31;5038997;28;20460;-71
2022/09/26 09:31:31;;;;;;;5.78;1.27;;;;;;;20.16;49.77;99981.00;5039194;28;20048;-68
2022/09/26 09:34:00;;;;;;;3.50;1.20;;;;;;;20.19;49.62;99969.28;5040115;28;20668;-71
2022/09/26 09:36:32;;;;;;;5.57;1.20;;;;;;;20.19;49.97;99962.16;5040362;28;20033;-70
2022/09/26 09:39:04;;;;;;;3.83;1.27;;;;;;;20.22;49.70;99958.34;5040577;28;20041;-69
2022/09/26 09:41:37;;;;;;;4.32;1.70;;;;;;;20.20;49.50;99955.88;5040486;28;20421;-70
2022/09/26 09:44:09;;;;;;;4.63;1.20;;;;;;;20.22;49.50;99955.69;5040806;28;20082;-69
2022/09/26 09:46:39;;;;;;;4.97;1.30;;;;;;;20.16;49.54;99943.13;5040281;28;20049;-72
2022/09/26 09:49:08;;;;;;;4.30;1.20;;;;;;;20.20;49.81;99944.44;5040323;28;20108;-73
2022/09/26 09:52:02;;;;;;;4.07;0.90;;;;;;;20.20;49.73;99939.16;5040322;28;20037;-70
2022/09/26 09:54:33;;;;;;;;;;;;;;;20.19;49.80;99932.22;5041043;28;20106;-68
2022/09/26 09:57:16;;;;;;;3.47;1.00;;;;;;;20.13;49.59;99917.00;5040469;28;19918;-70
2022/09/26 09:59:53;;;;;;;3.33;1.10;;;;;;;20.19;49.92;99926.94;5040240;28;20124;-68
2022/09/26 10:02:28;;;;;;;5.97;1.23;;;;;;;20.14;49.80;99905.41;5040358;28;20048;-68
2022/09/26 10:05:22;;;;;;;4.57;0.95;;;;;;;20.21;49.86;99906.44;5040079;28;20365;-70
2022/09/26 10:07:48;;;;;;;4.32;1.20;;;;;;;20.16;49.79;99900.81;5040520;28;20035;-71
2022/09/26 10:10:21;;;;;;;5.20;1.02;;;;;;;20.17;49.91;99899.81;5040034;28;20033;-73
2022/09/26 10:12:50;;;;;;;10.50;1.37;;;;;;;20.14;49.99;99895.69;5040472;28;20021;-67
2022/09/26 10:15:19;;;;;;;4.00;1.05;;;;;;;20.17;49.75;99891.88;5040624;28;20033;-68
2022/09/26 10:18:04;;;;;;;4.95;1.10;;;;;;;20.24;50.02;99901.66;5040237;28;20102;-71
2022/09/26 10:20:41;;;;;;;5.55;1.63;;;;;;;20.21;49.87;99888.75;5039426;28;20063;-69
2022/09/26 10:23:17;;;;;;;3.50;1.20;;;;;;;20.25;50.00;99886.59;5041663;28;20491;-68
2022/09/26 10:25:48;;;;;;;8.48;1.33;;;;;;;20.25;49.81;99894.53;5043869;28;20119;-68
2022/09/26 10:28:26;;;;;;;3.58;1.20;;;;;;;20.17;49.97;99871.56;5044353;28;20044;-68
2022/09/26 10:30:55;;;;;;;3.05;1.10;;;;;;;20.25;50.09;99887.44;5043677;28;20037;-67
2022/09/26 10:33:27;;;;;;;3.15;1.10;;;;;;;20.21;50.08;99874.69;5043306;28;20048;-68
2022/09/26 10:36:02;;;;;;;7.68;1.38;;;;;;;20.25;50.09;99878.66;5043213;28;20037;-71
2022/09/26 10:38:28;;;;;;;3.45;1.10;;;;;;;20.24;50.06;99877.84;5043563;28;20024;-69
2022/09/26 10:40:58;;;;;;;5.18;1.13;;;;;;;20.22;50.15;99868.41;5042246;28;20086;-63
2022/09/26 10:43:29;;;;;;;5.78;1.23;;;;;;;20.19;50.30;99864.28;5042725;28;20551;-63
2022/09/26 10:46:16;;;;;;;3.85;1.17;;;;;;;20.20;50.23;99863.28;5043732;28;20048;-66
2022/09/26 10:48:48;;;;;;;3.15;1.67;;;;;;;20.11;50.46;99846.56;5043653;28;20028;-63
2022/09/26 10:51:29;;;;;;;5.55;1.00;;;;;;;20.11;50.40;99853.69;5042925;28;20064;-63
2022/09/26 10:54:02;;;;;;;3.35;1.02;;;;;;;20.07;50.49;99845.22;5043693;28;20036;-62
2022/09/26 10:56:31;;;;;;;4.45;1.23;;;;;;;20.04;50.57;99839.44;5043695;28;20532;-64
2022/09/26 10:59:04;;;;;;;6.10;1.40;;;;;;;20.01;50.40;99845.03;5043661;28;20614;-64
2022/09/26 11:01:31;;;;;;;5.70;1.10;;;;;;;20.01;50.69;99840.59;5041880;28;20045;-73
2022/09/26 11:07:08;;;;;;;4.75;1.95;;;;;;;19.97;51.21;99839.25;5043101;28;20460;-68
2022/09/26 11:09:37;;;;;;;5.57;1.30;;;;;;;20.04;50.95;99839.44;5042719;28;20060;-69
2022/09/26 11:12:24;;;;;;;11.20;1.20;;;;;;;20.06;50.98;99842.72;5042487;28;20039;-70
2022/09/26 11:14:57;;;;;;;5.05;1.33;;;;;;;20.11;50.87;99832.50;5042656;28;20063;-68
2022/09/26 11:17:42;;;;;;;9.43;2.97;;;;;;;20.08;50.68;99824.91;5042302;28;20029;-66
2022/09/26 11:20:12;;;;;;;3.40;1.20;;;;;;;20.17;50.26;99823.94;5042625;28;20072;-67
2022/09/26 11:22:43;;;;;;;7.25;1.38;;;;;;;20.22;50.50;99834.84;5043106;28;20047;-68
2022/09/26 11:25:16;;;;;;;5.75;1.42;;;;;;;20.22;50.57;99834.00;5043084;28;20082;-68
2022/09/26 11:27:47;;;;;;;3.65;1.00;;;;;;;20.22;50.63;99839.28;5042469;28;20036;-61
2022/09/26 11:30:20;;;;;;;3.50;1.20;;;;;;;20.15;50.55;99819.78;5041709;28;20924;-61
2022/09/26 11:32:52;;;;;;;4.40;1.20;;;;;;;20.09;50.58;99800.09;5042466;28;20029;-61
2022/09/26 11:35:47;;;;;;;3.45;1.20;;;;;;;20.04;50.63;99791.81;5042725;28;20385;-63
2022/09/26 11:38:37;;;;;;;8.45;1.42;;;;;;;20.07;50.70;99799.44;5042993;28;20120;-62
2022/09/26 11:41:35;;;;;;;4.40;1.23;;;;;;;20.11;50.61;99812.16;5057839;28;20041;-62
2022/09/26 11:44:33;;;;;;;5.05;1.42;;;;;;;20.11;50.82;99814.00;5042960;28;20090;-61
2022/09/26 11:47:35;;;;;;;2.60;1.15;;;;;;;20.09;50.83;99813.31;5042704;28;20068;-61
2022/09/26 11:50:39;;;;;;;7.68;1.50;;;;;;;20.08;51.20;99811.69;5040573;28;20060;-73
2022/09/26 11:53:21;;;;;;;3.78;1.20;;;;;;;20.00;51.19;99793.97;5041999;28;20415;-68
2022/09/26 11:56:14;;;;;;;3.92;1.60;;;;;;;20.02;51.23;99796.44;5041871;28;20032;-70
2022/09/26 11:58:58;;;;;;;5.78;1.30;;;;;;;20.10;51.11;99804.41;5042239;28;20033;-69
2022/09/26 12:01:53;;;;;;;5.63;1.50;;;;;;;20.14;51.33;99796.97;5041714;28;20033;-69
2022/09/26 12:04:37;;;;;;;;;;;;;;;20.15;51.06;99795.97;5042547;28;20502;-67